createdAt,value
2022-08-26T00:00:01.823Z,16.30
2022-08-26T00:01:01.820Z,16.00
2022-08-26T00:02:01.887Z,12.70
2022-08-26T00:03:01.882Z,14.30
2022-08-26T00:04:01.900Z,13.60
2022-08-26T00:05:01.748Z,14.90
2022-08-26T00:06:01.735Z,13.80
2022-08-26T00:07:01.719Z,15.30
2022-08-26T00:08:01.706Z,12.30
2022-08-26T00:09:01.690Z,13.30
2022-08-26T00:10:01.674Z,15.40
2022-08-26T00:11:01.660Z,16.20
2022-08-26T00:12:01.646Z,17.10
2022-08-26T00:13:01.683Z,17.20
2022-08-26T00:14:01.620Z,13.70
2022-08-26T00:15:01.621Z,19.80
2022-08-26T00:16:01.588Z,16.30
2022-08-26T00:17:01.645Z,16.70
2022-08-26T00:18:01.559Z,15.20
2022-08-26T00:19:01.543Z,12.30
2022-08-26T00:20:01.532Z,14.00
2022-08-26T00:21:01.513Z,14.20
2022-08-26T00:22:01.499Z,12.70
2022-08-26T00:23:01.546Z,13.20
2022-08-26T00:24:01.470Z,13.50
2022-08-26T00:25:01.452Z,13.50
2022-08-26T00:26:01.439Z,14.90
2022-08-26T00:27:01.426Z,15.90
2022-08-26T00:28:01.409Z,16.10
2022-08-26T00:29:01.395Z,15.10
2022-08-26T00:30:01.380Z,13.30
2022-08-26T00:31:01.365Z,15.90
2022-08-26T00:32:01.433Z,13.30
2022-08-26T00:33:01.348Z,15.90
2022-08-26T00:34:01.320Z,14.60
2022-08-26T00:35:01.302Z,14.90
2022-08-26T00:36:01.291Z,14.20
2022-08-26T00:37:01.274Z,13.70
2022-08-26T00:38:01.260Z,16.30
2022-08-26T00:39:01.251Z,17.60
2022-08-26T00:40:01.292Z,15.10
2022-08-26T00:41:01.216Z,14.10
2022-08-26T00:42:01.203Z,14.60
2022-08-26T00:43:01.236Z,17.30
2022-08-26T00:44:01.172Z,15.60
2022-08-26T00:45:01.158Z,19.20
2022-08-26T00:46:01.223Z,17.70
2022-08-26T00:47:01.126Z,13.40
2022-08-26T00:48:01.112Z,15.60
2022-08-26T00:49:01.113Z,18.80
2022-08-26T00:50:01.083Z,17.30
2022-08-26T00:51:01.070Z,15.80
2022-08-26T00:52:01.054Z,19.60
2022-08-26T00:53:01.085Z,21.40
2022-08-26T00:54:01.020Z,17.60
2022-08-26T00:55:01.007Z,21.80
2022-08-26T00:56:00.994Z,17.80
2022-08-26T00:57:00.984Z,17.00
2022-08-26T00:58:00.962Z,16.10
2022-08-26T00:59:00.946Z,16.50
2022-08-26T01:00:00.933Z,18.40
2022-08-26T01:01:00.965Z,16.30
2022-08-26T01:02:02.611Z,16.30
2022-08-26T01:03:00.948Z,16.60
2022-08-26T01:04:00.871Z,17.70
2022-08-26T01:05:00.857Z,16.60
2022-08-26T01:06:00.841Z,15.10
2022-08-26T01:07:00.830Z,16.20
2022-08-26T01:08:00.812Z,15.70
2022-08-26T01:09:00.797Z,15.10
2022-08-26T01:10:00.781Z,17.10
2022-08-26T01:11:00.764Z,17.50
2022-08-26T01:12:00.751Z,17.80
2022-08-26T01:13:00.812Z,19.00
2022-08-26T01:14:00.724Z,17.10
2022-08-26T01:15:00.704Z,18.10
2022-08-26T01:16:00.732Z,18.10
2022-08-26T01:17:00.675Z,16.20
2022-08-26T01:18:00.661Z,14.60
2022-08-26T01:19:00.643Z,16.10
2022-08-26T01:20:00.629Z,18.50
2022-08-26T01:21:00.615Z,17.20
2022-08-26T01:22:00.600Z,15.50
2022-08-26T01:23:01.643Z,20.70
2022-08-26T01:24:00.572Z,20.20
2022-08-26T01:25:00.553Z,17.00
2022-08-26T01:26:00.539Z,18.90
2022-08-26T01:27:00.523Z,17.70
2022-08-26T01:28:00.507Z,16.70
2022-08-26T01:29:00.505Z,16.10
2022-08-26T01:30:00.480Z,17.00
2022-08-26T01:31:00.462Z,16.70
2022-08-26T01:32:00.560Z,20.00
2022-08-26T01:33:00.432Z,21.10
2022-08-26T01:34:00.418Z,19.10
2022-08-26T01:35:00.403Z,16.90
2022-08-26T01:36:00.388Z,17.00
2022-08-26T01:37:00.372Z,17.60
2022-08-26T01:38:00.359Z,17.60
2022-08-26T01:39:00.345Z,18.40
2022-08-26T01:40:00.454Z,18.20
2022-08-26T01:41:00.310Z,17.60
2022-08-26T01:42:03.121Z,21.40
2022-08-26T01:43:00.326Z,16.20
2022-08-26T01:44:00.268Z,16.60
2022-08-26T01:45:00.253Z,18.10
2022-08-26T01:46:00.297Z,18.10
2022-08-26T01:47:00.221Z,16.80
2022-08-26T01:48:00.206Z,17.00
2022-08-26T01:49:00.192Z,18.10
2022-08-26T01:50:00.202Z,19.20
2022-08-26T01:51:00.159Z,18.70
2022-08-26T01:52:00.146Z,19.10
2022-08-26T01:53:00.129Z,19.60
2022-08-26T01:54:00.134Z,17.00
2022-08-26T01:55:00.111Z,19.20
2022-08-26T01:56:00.101Z,17.30
2022-08-26T01:57:00.080Z,21.50
2022-08-26T01:58:00.052Z,19.50
2022-08-26T01:59:00.042Z,20.60
2022-08-26T02:00:00.028Z,21.60
2022-08-26T02:01:00.083Z,23.00
2022-08-26T02:01:59.994Z,16.40
2022-08-26T02:02:59.977Z,18.90
2022-08-26T02:03:59.964Z,19.80
2022-08-26T02:05:00.032Z,23.80
2022-08-26T02:05:59.936Z,21.20
2022-08-26T02:06:59.916Z,18.60
2022-08-26T02:07:59.900Z,18.50
2022-08-26T02:08:59.888Z,23.50
2022-08-26T02:09:59.870Z,19.00
2022-08-26T02:10:59.854Z,20.10
2022-08-26T02:11:59.839Z,21.30
2022-08-26T02:12:59.825Z,22.50
2022-08-26T02:13:59.808Z,21.40
2022-08-26T02:14:59.793Z,23.30
2022-08-26T02:15:59.799Z,21.80
2022-08-26T02:16:59.763Z,22.70
2022-08-26T02:17:59.748Z,19.40
2022-08-26T02:18:59.738Z,23.40
2022-08-26T02:19:59.717Z,25.40
2022-08-26T02:20:59.703Z,19.50
2022-08-26T02:21:59.687Z,25.60
2022-08-26T02:22:59.671Z,24.30
2022-08-26T02:23:59.658Z,22.60
2022-08-26T02:24:59.641Z,22.50
2022-08-26T02:25:59.628Z,22.30
2022-08-26T02:26:59.609Z,21.60
2022-08-26T02:27:59.596Z,21.30
2022-08-26T02:28:59.578Z,22.40
2022-08-26T02:29:59.561Z,21.30
2022-08-26T02:30:59.547Z,23.00
2022-08-26T02:31:59.539Z,25.40
2022-08-26T02:32:59.529Z,23.30
2022-08-26T02:33:59.529Z,21.30
2022-08-26T02:34:59.485Z,22.60
2022-08-26T02:35:59.472Z,24.90
2022-08-26T02:36:59.465Z,23.00
2022-08-26T02:37:59.438Z,22.90
2022-08-26T02:38:59.424Z,21.80
2022-08-26T02:39:59.470Z,23.90
2022-08-26T02:40:59.392Z,23.30
2022-08-26T02:41:59.377Z,22.70
2022-08-26T02:42:59.362Z,26.00
2022-08-26T02:43:59.347Z,27.50
2022-08-26T02:44:59.333Z,24.80
2022-08-26T02:46:01.818Z,23.60
2022-08-26T02:46:59.321Z,24.00
2022-08-26T02:47:59.616Z,26.00
2022-08-26T02:48:59.269Z,27.10
2022-08-26T02:49:59.252Z,26.30
2022-08-26T02:50:59.237Z,24.80
2022-08-26T02:51:59.223Z,26.30
2022-08-26T02:52:59.202Z,25.90
2022-08-26T02:53:59.189Z,24.60
2022-08-26T02:54:59.175Z,29.60
2022-08-26T02:55:59.162Z,27.70
2022-08-26T02:56:59.142Z,30.90
2022-08-26T02:57:59.133Z,27.90
2022-08-26T02:58:59.110Z,31.70
2022-08-26T02:59:59.098Z,31.80
2022-08-26T03:00:59.148Z,32.50
2022-08-26T03:01:59.110Z,31.00
2022-08-26T03:02:59.048Z,32.10
2022-08-26T03:03:59.036Z,31.70
2022-08-26T03:05:02.202Z,35.50
2022-08-26T03:05:59.001Z,34.50
2022-08-26T03:06:58.984Z,36.50
2022-08-26T03:07:58.971Z,35.30
2022-08-26T03:08:58.954Z,35.40
2022-08-26T03:09:58.937Z,32.90
2022-08-26T03:10:58.922Z,37.80
2022-08-26T03:11:58.906Z,35.90
2022-08-26T03:12:58.892Z,38.50
2022-08-26T03:13:58.876Z,36.10
2022-08-26T03:14:58.863Z,38.70
2022-08-26T03:15:58.894Z,35.70
2022-08-26T03:16:58.834Z,37.80
2022-08-26T03:17:58.813Z,36.70
2022-08-26T03:18:58.798Z,37.50
2022-08-26T03:19:58.781Z,42.60
2022-08-26T03:20:58.766Z,42.20
2022-08-26T03:21:58.749Z,41.80
2022-08-26T03:22:58.736Z,53.40
2022-08-26T03:23:58.915Z,46.90
2022-08-26T03:24:58.707Z,50.80
2022-08-26T03:25:58.686Z,49.80
2022-08-26T03:26:58.673Z,53.70
2022-08-26T03:27:59.580Z,52.00
2022-08-26T03:28:58.642Z,51.80
2022-08-26T03:29:58.623Z,54.00
2022-08-26T03:30:58.638Z,54.10
2022-08-26T03:31:58.595Z,52.70
2022-08-26T03:32:58.578Z,56.40
2022-08-26T03:33:59.536Z,52.20
2022-08-26T03:34:58.548Z,58.20
2022-08-26T03:35:58.529Z,57.10
2022-08-26T03:36:58.515Z,56.00
2022-08-26T03:37:58.496Z,59.70
2022-08-26T03:38:58.483Z,65.50
2022-08-26T03:39:58.525Z,59.80
2022-08-26T03:40:58.455Z,64.30
2022-08-26T03:41:58.434Z,62.10
2022-08-26T03:42:58.421Z,64.80
2022-08-26T03:44:01.536Z,63.20
2022-08-26T03:44:58.388Z,65.10
2022-08-26T03:45:58.371Z,69.40
2022-08-26T03:46:58.360Z,68.80
2022-08-26T03:47:58.397Z,67.50
2022-08-26T03:48:58.325Z,70.10
2022-08-26T03:49:58.309Z,72.40
2022-08-26T03:50:58.295Z,69.70
2022-08-26T03:51:58.276Z,71.30
2022-08-26T03:52:58.262Z,70.30
2022-08-26T03:53:58.244Z,74.70
2022-08-26T03:54:58.230Z,77.70
2022-08-26T03:55:58.213Z,73.60
2022-08-26T03:56:58.198Z,72.90
2022-08-26T03:57:58.187Z,74.10
2022-08-26T03:58:58.165Z,75.40
2022-08-26T03:59:58.151Z,83.60
2022-08-26T04:00:58.135Z,79.20
2022-08-26T04:01:58.236Z,83.40
2022-08-26T04:02:58.229Z,79.20
2022-08-26T04:03:58.185Z,81.50
2022-08-26T04:04:58.071Z,82.90
2022-08-26T04:05:58.126Z,84.70
2022-08-26T04:06:58.040Z,83.20
2022-08-26T04:07:58.022Z,77.40
2022-08-26T04:08:58.012Z,83.80
2022-08-26T04:09:58.016Z,82.90
2022-08-26T04:10:57.978Z,84.60
2022-08-26T04:11:57.963Z,86.40
2022-08-26T04:12:58.644Z,84.50
2022-08-26T04:13:57.929Z,83.40
2022-08-26T04:14:57.912Z,84.60
2022-08-26T04:15:57.911Z,87.10
2022-08-26T04:16:57.880Z,86.70
2022-08-26T04:17:57.865Z,89.50
2022-08-26T04:18:57.852Z,88.10
2022-08-26T04:19:57.835Z,83.70
2022-08-26T04:20:57.819Z,88.10
2022-08-26T04:21:57.800Z,87.50
2022-08-26T04:22:57.787Z,88.30
2022-08-26T04:23:58.285Z,96.60
2022-08-26T04:24:57.757Z,91.10
2022-08-26T04:25:57.740Z,100.50
2022-08-26T04:26:57.722Z,94.40
2022-08-26T04:27:57.707Z,94.10
2022-08-26T04:28:57.690Z,94.40
2022-08-26T04:29:57.671Z,100.20
2022-08-26T04:30:57.713Z,99.40
2022-08-26T04:31:57.641Z,101.50
2022-08-26T04:32:57.629Z,103.20
2022-08-26T04:33:57.608Z,104.50
2022-08-26T04:34:57.594Z,103.30
2022-08-26T04:35:57.577Z,102.30
2022-08-26T04:36:57.573Z,103.40
2022-08-26T04:37:57.546Z,111.10
2022-08-26T04:38:57.530Z,105.90
2022-08-26T04:39:57.577Z,111.30
2022-08-26T04:40:57.500Z,103.20
2022-08-26T04:41:57.860Z,104.20
2022-08-26T04:42:57.468Z,109.70
2022-08-26T04:43:57.475Z,109.30
2022-08-26T04:44:57.442Z,104.40
2022-08-26T04:45:57.437Z,106.40
2022-08-26T04:46:57.402Z,104.40
2022-08-26T04:47:57.384Z,107.10
2022-08-26T04:48:57.371Z,108.20
2022-08-26T04:49:57.354Z,103.60
2022-08-26T04:50:57.338Z,102.70
2022-08-26T04:51:57.328Z,106.30
2022-08-26T04:52:57.307Z,108.90
2022-08-26T04:53:57.356Z,109.30
2022-08-26T04:54:57.279Z,105.80
2022-08-26T04:55:57.256Z,110.70
2022-08-26T04:56:57.242Z,110.10
2022-08-26T04:57:57.224Z,112.00
2022-08-26T04:58:57.208Z,105.70
2022-08-26T04:59:57.192Z,106.40
2022-08-26T05:00:57.179Z,103.10
2022-08-26T05:01:57.264Z,104.30
2022-08-26T05:02:57.146Z,107.50
2022-08-26T05:03:57.158Z,109.80
2022-08-26T05:04:57.115Z,102.60
2022-08-26T05:05:57.094Z,105.00
2022-08-26T05:07:02.920Z,109.60
2022-08-26T05:07:57.064Z,103.30
2022-08-26T05:08:57.052Z,114.30
2022-08-26T05:09:57.028Z,100.80
2022-08-26T05:10:57.022Z,103.60
2022-08-26T05:11:56.997Z,108.40
2022-08-26T05:12:56.984Z,108.20
2022-08-26T05:14:01.616Z,105.70
2022-08-26T05:14:56.953Z,104.80
2022-08-26T05:16:01.128Z,102.20
2022-08-26T05:16:56.918Z,106.20
2022-08-26T05:17:56.902Z,107.60
2022-08-26T05:18:56.891Z,95.00
2022-08-26T05:19:56.872Z,104.30
2022-08-26T05:20:56.857Z,108.10
2022-08-26T05:21:56.837Z,106.00
2022-08-26T05:22:56.822Z,100.30
2022-08-26T05:23:56.804Z,106.10
2022-08-26T05:24:56.791Z,109.80
2022-08-26T05:25:59.318Z,109.40
2022-08-26T05:26:56.761Z,103.40
2022-08-26T05:27:56.745Z,104.20
2022-08-26T05:28:56.727Z,101.60
2022-08-26T05:29:56.708Z,99.90
2022-08-26T05:30:56.727Z,104.90
2022-08-26T05:31:56.677Z,104.20
2022-08-26T05:32:56.661Z,98.40
2022-08-26T05:33:56.645Z,98.90
2022-08-26T05:34:56.628Z,101.30
2022-08-26T05:35:56.616Z,100.30
2022-08-26T05:36:56.600Z,110.90
2022-08-26T05:37:56.579Z,101.10
2022-08-26T05:38:56.563Z,92.00
2022-08-26T05:39:56.568Z,97.90
2022-08-26T05:40:56.533Z,102.70
2022-08-26T05:41:56.516Z,94.30
2022-08-26T05:42:56.500Z,91.10
2022-08-26T05:43:56.481Z,98.10
2022-08-26T05:44:56.469Z,96.30
2022-08-26T05:45:56.483Z,101.30
2022-08-26T05:46:56.436Z,95.00
2022-08-26T05:47:56.417Z,98.10
2022-08-26T05:48:56.403Z,101.50
2022-08-26T05:49:56.385Z,102.20
2022-08-26T05:50:56.369Z,98.80
2022-08-26T05:51:56.356Z,96.80
2022-08-26T05:52:56.341Z,93.70
2022-08-26T05:53:56.321Z,98.10
2022-08-26T05:54:56.305Z,98.20
2022-08-26T05:55:56.291Z,91.90
2022-08-26T05:56:56.276Z,93.30
2022-08-26T05:57:56.257Z,94.60
2022-08-26T05:58:56.243Z,92.90
2022-08-26T05:59:56.241Z,91.00
2022-08-26T06:00:56.211Z,88.30
2022-08-26T06:01:56.266Z,95.50
2022-08-26T06:02:56.278Z,97.90
2022-08-26T06:03:56.372Z,87.40
2022-08-26T06:04:56.147Z,84.90
2022-08-26T06:05:56.128Z,92.50
2022-08-26T06:06:56.112Z,88.40
2022-08-26T06:07:56.095Z,87.80
2022-08-26T06:08:56.083Z,92.10
2022-08-26T06:10:05.497Z,91.30
2022-08-26T06:10:56.051Z,85.50
2022-08-26T06:11:56.042Z,85.70
2022-08-26T06:12:56.018Z,83.60
2022-08-26T06:14:01.218Z,81.50
2022-08-26T06:14:55.985Z,80.90
2022-08-26T06:15:56.069Z,84.60
2022-08-26T06:16:55.955Z,83.10
2022-08-26T06:17:55.938Z,80.80
2022-08-26T06:18:55.925Z,85.90
2022-08-26T06:19:55.903Z,84.50
2022-08-26T06:20:57.934Z,84.00
2022-08-26T06:21:55.876Z,80.60
2022-08-26T06:22:55.857Z,78.40
2022-08-26T06:23:55.838Z,86.10
2022-08-26T06:24:55.826Z,78.60
2022-08-26T06:25:55.811Z,83.10
2022-08-26T06:26:55.793Z,77.30
2022-08-26T06:27:55.777Z,82.20
2022-08-26T06:28:55.764Z,80.60
2022-08-26T06:29:55.748Z,80.30
2022-08-26T06:30:55.794Z,81.20
2022-08-26T06:31:56.216Z,85.60
2022-08-26T06:32:55.701Z,82.70
2022-08-26T06:33:55.680Z,80.50
2022-08-26T06:34:55.663Z,81.10
2022-08-26T06:35:55.651Z,78.30
2022-08-26T06:36:55.634Z,74.50
2022-08-26T06:37:55.617Z,77.90
2022-08-26T06:38:55.605Z,81.40
2022-08-26T06:39:55.661Z,74.80
2022-08-26T06:40:55.569Z,76.10
2022-08-26T06:41:55.552Z,77.70
2022-08-26T06:42:55.538Z,76.50
2022-08-26T06:43:55.580Z,80.00
2022-08-26T06:44:55.514Z,75.10
2022-08-26T06:45:55.527Z,78.90
2022-08-26T06:46:55.475Z,76.30
2022-08-26T06:47:55.454Z,76.10
2022-08-26T06:48:55.442Z,79.00
2022-08-26T06:49:55.422Z,72.00
2022-08-26T06:50:55.412Z,75.00
2022-08-26T06:51:55.412Z,79.90
2022-08-26T06:52:55.388Z,72.80
2022-08-26T06:53:55.361Z,73.40
2022-08-26T06:54:55.347Z,74.60
2022-08-26T06:55:55.388Z,74.90
2022-08-26T06:56:55.317Z,73.40
2022-08-26T06:57:55.297Z,74.00
2022-08-26T06:58:55.844Z,70.50
2022-08-26T06:59:55.267Z,69.10
2022-08-26T07:00:57.588Z,69.50
2022-08-26T07:01:55.376Z,73.50
2022-08-26T07:02:55.274Z,70.50
2022-08-26T07:03:55.203Z,78.10
2022-08-26T07:04:56.789Z,69.00
2022-08-26T07:05:55.172Z,74.60
2022-08-26T07:06:55.158Z,69.60
2022-08-26T07:07:55.140Z,71.40
2022-08-26T07:08:55.125Z,68.50
2022-08-26T07:09:55.107Z,72.00
2022-08-26T07:10:55.968Z,65.40
2022-08-26T07:11:55.076Z,68.50
2022-08-26T07:12:55.059Z,68.00
2022-08-26T07:13:55.044Z,75.80
2022-08-26T07:14:55.030Z,68.70
2022-08-26T07:15:57.388Z,64.90
2022-08-26T07:16:55.000Z,65.40
2022-08-26T07:17:54.979Z,65.40
2022-08-26T07:18:54.967Z,70.80
2022-08-26T07:19:54.950Z,68.00
2022-08-26T07:20:54.934Z,65.70
2022-08-26T07:21:54.919Z,70.80
2022-08-26T07:22:54.903Z,66.30
2022-08-26T07:24:00.040Z,63.80
2022-08-26T07:24:54.871Z,68.60
2022-08-26T07:25:54.855Z,70.20
2022-08-26T07:26:54.837Z,68.30
2022-08-26T07:27:54.827Z,66.90
2022-08-26T07:28:54.809Z,66.20
2022-08-26T07:29:54.793Z,73.00
2022-08-26T07:30:54.840Z,65.60
2022-08-26T07:31:54.764Z,69.40
2022-08-26T07:32:54.742Z,65.30
2022-08-26T07:33:54.729Z,66.70
2022-08-26T07:34:54.711Z,65.70
2022-08-26T07:35:54.696Z,72.60
2022-08-26T07:36:55.313Z,64.80
2022-08-26T07:37:57.083Z,69.30
2022-08-26T07:38:54.648Z,69.70
2022-08-26T07:39:54.724Z,63.20
2022-08-26T07:40:54.680Z,62.60
2022-08-26T07:41:54.675Z,61.20
2022-08-26T07:42:54.610Z,63.00
2022-08-26T07:43:54.570Z,60.90
2022-08-26T07:44:54.568Z,65.10
2022-08-26T07:45:54.547Z,67.10
2022-08-26T07:46:54.574Z,67.20
2022-08-26T07:47:54.508Z,62.90
2022-08-26T07:48:54.491Z,65.00
2022-08-26T07:49:54.479Z,59.00
2022-08-26T07:50:54.457Z,60.30
2022-08-26T07:51:54.452Z,61.90
2022-08-26T07:52:54.428Z,63.30
2022-08-26T07:53:54.411Z,61.90
2022-08-26T07:54:54.393Z,61.70
2022-08-26T07:55:54.387Z,59.60
2022-08-26T07:56:54.384Z,59.90
2022-08-26T07:57:54.349Z,62.00
2022-08-26T07:58:54.396Z,59.50
2022-08-26T07:59:55.251Z,57.80
2022-08-26T08:00:54.299Z,56.20
2022-08-26T08:01:54.331Z,61.40
2022-08-26T08:02:54.280Z,59.70
2022-08-26T08:03:54.259Z,59.80
2022-08-26T08:04:54.274Z,62.70
2022-08-26T08:05:54.247Z,58.40
2022-08-26T08:06:54.225Z,60.00
2022-08-26T08:07:54.262Z,59.50
2022-08-26T08:08:54.178Z,55.00
2022-08-26T08:09:54.188Z,65.50
2022-08-26T08:10:54.139Z,57.30
2022-08-26T08:11:54.128Z,60.60
2022-08-26T08:12:54.118Z,63.50
2022-08-26T08:13:56.449Z,59.70
2022-08-26T08:14:54.132Z,58.60
2022-08-26T08:15:54.065Z,58.60
2022-08-26T08:16:54.544Z,57.00
2022-08-26T08:17:55.580Z,55.50
2022-08-26T08:18:54.023Z,56.70
2022-08-26T08:19:54.003Z,53.70
2022-08-26T08:21:04.652Z,57.60
2022-08-26T08:21:53.970Z,53.80
2022-08-26T08:22:53.950Z,59.60
2022-08-26T08:23:53.944Z,59.90
2022-08-26T08:24:53.922Z,57.50
2022-08-26T08:25:53.906Z,58.20
2022-08-26T08:26:53.893Z,60.00
2022-08-26T08:27:53.874Z,59.20
2022-08-26T08:28:53.861Z,53.50
2022-08-26T08:29:53.850Z,57.30
2022-08-26T08:30:53.904Z,57.60
2022-08-26T08:31:57.042Z,60.50
2022-08-26T08:32:53.795Z,58.40
2022-08-26T08:33:53.785Z,55.60
2022-08-26T08:34:53.763Z,58.40
2022-08-26T08:35:53.750Z,56.90
2022-08-26T08:36:53.874Z,58.80
2022-08-26T08:37:53.717Z,57.20
2022-08-26T08:38:53.700Z,57.00
2022-08-26T08:39:53.714Z,58.00
2022-08-26T08:40:53.668Z,55.30
2022-08-26T08:41:53.654Z,59.10
2022-08-26T08:42:53.655Z,53.10
2022-08-26T08:43:53.623Z,62.80
2022-08-26T08:44:53.606Z,58.20
2022-08-26T08:45:53.656Z,58.10
2022-08-26T08:46:53.576Z,61.60
2022-08-26T08:47:54.615Z,53.20
2022-08-26T08:48:53.551Z,59.40
2022-08-26T08:49:53.528Z,58.50
2022-08-26T08:50:53.512Z,57.60
2022-08-26T08:51:53.498Z,55.70
2022-08-26T08:52:53.481Z,59.00
2022-08-26T08:53:54.852Z,59.50
2022-08-26T08:54:53.447Z,56.30
2022-08-26T08:55:53.431Z,54.90
2022-08-26T08:56:53.418Z,62.60
2022-08-26T08:57:53.700Z,57.60
2022-08-26T08:58:53.387Z,56.80
2022-08-26T08:59:53.422Z,56.10
2022-08-26T09:00:53.410Z,55.30
2022-08-26T09:01:53.909Z,55.40
2022-08-26T09:02:53.323Z,65.20
2022-08-26T09:03:53.310Z,57.70
2022-08-26T09:04:53.291Z,57.40
2022-08-26T09:05:53.279Z,56.10
2022-08-26T09:06:53.296Z,59.70
2022-08-26T09:07:53.248Z,56.30
2022-08-26T09:08:53.229Z,60.40
2022-08-26T09:09:53.214Z,56.60
2022-08-26T09:10:53.197Z,63.60
2022-08-26T09:11:53.184Z,51.10
2022-08-26T09:12:53.176Z,51.80
2022-08-26T09:13:53.151Z,57.70
2022-08-26T09:14:53.140Z,56.00
2022-08-26T09:15:53.121Z,52.60
2022-08-26T09:16:53.133Z,56.10
2022-08-26T09:17:53.093Z,52.50
2022-08-26T09:18:53.075Z,52.40
2022-08-26T09:19:53.070Z,53.40
2022-08-26T09:20:53.045Z,60.90
2022-08-26T09:21:53.512Z,55.60
2022-08-26T09:22:53.009Z,58.90
2022-08-26T09:23:52.995Z,56.50
2022-08-26T09:24:52.980Z,59.10
2022-08-26T09:26:52.990Z,58.00
2022-08-26T09:27:52.933Z,60.80
2022-08-26T09:28:52.922Z,57.80
2022-08-26T09:29:52.902Z,54.00
2022-08-26T09:30:52.934Z,55.50
2022-08-26T09:31:52.870Z,52.40
2022-08-26T09:32:56.312Z,54.60
2022-08-26T09:33:52.840Z,53.70
2022-08-26T09:34:52.823Z,52.60
2022-08-26T09:35:52.810Z,57.10
2022-08-26T09:36:52.795Z,51.70
2022-08-26T09:37:52.847Z,51.20
2022-08-26T09:38:52.763Z,51.90
2022-08-26T09:39:52.798Z,53.90
2022-08-26T09:40:58.970Z,51.70
2022-08-26T09:41:52.719Z,50.40
2022-08-26T09:42:52.700Z,54.10
2022-08-26T09:43:52.682Z,49.80
2022-08-26T09:44:52.671Z,52.90
2022-08-26T09:45:54.893Z,49.50
2022-08-26T09:46:52.637Z,49.90
2022-08-26T09:47:52.629Z,50.50
2022-08-26T09:48:53.205Z,47.60
2022-08-26T09:49:52.599Z,51.80
2022-08-26T09:50:52.575Z,50.00
2022-08-26T09:51:52.560Z,46.50
2022-08-26T09:52:52.544Z,44.40
2022-08-26T09:53:52.531Z,51.30
2022-08-26T09:54:52.514Z,49.40
2022-08-26T09:55:52.497Z,45.40
2022-08-26T09:56:52.483Z,45.00
2022-08-26T09:57:52.466Z,47.60
2022-08-26T09:58:52.451Z,46.70
2022-08-26T09:59:52.438Z,47.60
2022-08-26T10:00:52.466Z,47.40
2022-08-26T10:01:52.625Z,52.60
2022-08-26T10:02:54.781Z,45.30
2022-08-26T10:03:52.429Z,43.70
2022-08-26T10:04:52.358Z,42.40
2022-08-26T10:05:52.344Z,46.60
2022-08-26T10:06:52.327Z,47.30
2022-08-26T10:07:52.314Z,46.10
2022-08-26T10:08:52.299Z,47.60
2022-08-26T10:09:52.284Z,42.90
2022-08-26T10:10:53.358Z,46.10
2022-08-26T10:11:52.254Z,39.20
2022-08-26T10:12:52.237Z,48.80
2022-08-26T10:13:52.223Z,48.10
2022-08-26T10:14:52.229Z,41.80
2022-08-26T10:15:52.191Z,40.50
2022-08-26T10:16:52.274Z,41.10
2022-08-26T10:17:52.174Z,43.80
2022-08-26T10:18:54.681Z,38.00
2022-08-26T10:19:56.910Z,38.80
2022-08-26T10:20:52.114Z,39.50
2022-08-26T10:21:52.273Z,44.70
2022-08-26T10:22:52.081Z,42.70
2022-08-26T10:23:52.070Z,41.10
2022-08-26T10:24:55.128Z,43.50
2022-08-26T10:25:52.039Z,46.60
2022-08-26T10:26:52.074Z,42.20
2022-08-26T10:27:53.746Z,47.40
2022-08-26T10:28:51.989Z,42.80
2022-08-26T10:29:52.516Z,45.00
2022-08-26T10:30:51.961Z,45.30
2022-08-26T10:31:52.136Z,41.30
2022-08-26T10:32:51.931Z,41.90
2022-08-26T10:33:56.656Z,39.00
2022-08-26T10:34:51.900Z,44.30
2022-08-26T10:35:51.888Z,44.60
2022-08-26T10:37:14.655Z,42.50
2022-08-26T10:37:51.854Z,42.30
2022-08-26T10:38:51.839Z,40.40
2022-08-26T10:39:56.893Z,40.40
2022-08-26T10:40:51.855Z,41.00
2022-08-26T10:41:51.793Z,41.20
2022-08-26T10:42:51.775Z,41.00
2022-08-26T10:43:51.762Z,41.60
2022-08-26T10:44:51.751Z,39.60
2022-08-26T10:45:51.779Z,39.00
2022-08-26T10:46:51.716Z,40.90
2022-08-26T10:47:51.705Z,39.20
2022-08-26T10:48:52.023Z,37.80
2022-08-26T10:49:51.671Z,39.50
2022-08-26T10:50:51.656Z,36.10
2022-08-26T10:51:51.651Z,39.20
2022-08-26T10:52:51.643Z,37.70
2022-08-26T10:53:51.726Z,35.10
2022-08-26T10:54:51.610Z,36.20
2022-08-26T10:55:51.586Z,34.50
2022-08-26T10:56:51.566Z,41.20
2022-08-26T10:57:51.548Z,48.20
2022-08-26T10:58:51.532Z,47.80
2022-08-26T10:59:51.627Z,36.00
2022-08-26T11:00:51.582Z,33.40
2022-08-26T11:01:52.499Z,32.70
2022-08-26T11:02:51.470Z,33.90
2022-08-26T11:03:51.518Z,36.30
2022-08-26T11:04:51.529Z,31.70
2022-08-26T11:05:51.424Z,33.90
2022-08-26T11:06:51.409Z,36.20
2022-08-26T11:07:51.397Z,33.10
2022-08-26T11:08:51.381Z,27.90
2022-08-26T11:09:51.365Z,27.40
2022-08-26T11:10:51.348Z,31.90
2022-08-26T11:11:51.337Z,27.40
2022-08-26T11:12:51.318Z,27.60
2022-08-26T11:13:51.304Z,29.30
2022-08-26T11:14:58.432Z,32.20
2022-08-26T11:15:51.338Z,28.80
2022-08-26T11:16:51.363Z,30.10
2022-08-26T11:17:51.334Z,32.70
2022-08-26T11:18:51.474Z,26.00
2022-08-26T11:20:00.892Z,28.90
2022-08-26T11:20:51.198Z,28.20
2022-08-26T11:21:51.188Z,27.00
2022-08-26T11:22:51.174Z,25.00
2022-08-26T11:23:52.948Z,26.10
2022-08-26T11:24:51.145Z,29.20
2022-08-26T11:25:51.125Z,32.10
2022-08-26T11:26:56.215Z,24.90
2022-08-26T11:27:51.095Z,22.10
2022-08-26T11:28:51.116Z,24.20
2022-08-26T11:29:51.063Z,28.30
2022-08-26T11:30:56.834Z,23.90
2022-08-26T11:31:51.078Z,22.80
2022-08-26T11:32:51.027Z,23.50
2022-08-26T11:33:51.190Z,23.90
2022-08-26T11:34:50.987Z,23.90
2022-08-26T11:35:50.979Z,24.90
2022-08-26T11:36:50.959Z,25.40
2022-08-26T11:37:50.948Z,21.40
2022-08-26T11:38:50.935Z,24.50
2022-08-26T11:39:55.037Z,22.70
2022-08-26T11:40:50.912Z,24.00
2022-08-26T11:41:52.676Z,21.90
2022-08-26T11:42:50.878Z,24.40
2022-08-26T11:43:50.853Z,23.20
2022-08-26T11:44:50.837Z,20.20
2022-08-26T11:45:50.861Z,23.80
2022-08-26T11:46:50.809Z,22.60
2022-08-26T11:47:50.792Z,22.40
2022-08-26T11:48:50.789Z,21.00
2022-08-26T11:49:50.771Z,19.50
2022-08-26T11:50:50.858Z,22.30
2022-08-26T11:51:50.732Z,22.30
2022-08-26T11:52:50.720Z,21.40
2022-08-26T11:53:50.702Z,22.40
2022-08-26T11:54:50.690Z,26.30
2022-08-26T11:55:50.678Z,24.60
2022-08-26T11:56:50.706Z,22.10
2022-08-26T11:57:50.643Z,22.20
2022-08-26T11:58:50.630Z,27.00
2022-08-26T11:59:50.614Z,19.50
2022-08-26T12:00:50.611Z,23.40
2022-08-26T12:01:50.582Z,22.40
2022-08-26T12:02:50.571Z,21.40
2022-08-26T12:03:50.707Z,28.10
2022-08-26T12:04:50.568Z,23.70
2022-08-26T12:05:50.524Z,21.60
2022-08-26T12:06:50.513Z,21.60
2022-08-26T12:07:50.495Z,24.30
2022-08-26T12:08:50.486Z,22.80
2022-08-26T12:09:50.463Z,20.80
2022-08-26T12:10:50.456Z,18.90
2022-08-26T12:11:50.436Z,20.80
2022-08-26T12:12:50.421Z,18.50
2022-08-26T12:13:50.408Z,23.60
2022-08-26T12:14:50.393Z,19.70
2022-08-26T12:15:50.378Z,22.90
2022-08-26T12:16:50.460Z,19.20
2022-08-26T12:17:54.373Z,17.90
2022-08-26T12:18:50.336Z,19.90
2022-08-26T12:19:50.316Z,15.50
2022-08-26T12:20:50.307Z,19.00
2022-08-26T12:21:50.288Z,18.70
2022-08-26T12:22:50.277Z,17.30
2022-08-26T12:23:50.261Z,17.70
2022-08-26T12:24:50.245Z,17.90
2022-08-26T12:25:50.228Z,14.70
2022-08-26T12:26:50.216Z,17.50
2022-08-26T12:27:53.743Z,16.30
2022-08-26T12:28:50.186Z,20.50
2022-08-26T12:29:50.171Z,18.10
2022-08-26T12:30:50.194Z,17.10
2022-08-26T12:31:50.202Z,14.10
2022-08-26T12:32:57.279Z,19.70
2022-08-26T12:33:50.112Z,12.40
2022-08-26T12:34:50.106Z,20.40
2022-08-26T12:35:52.885Z,18.50
2022-08-26T12:36:50.275Z,14.30
2022-08-26T12:37:50.051Z,18.80
2022-08-26T12:38:50.041Z,18.20
2022-08-26T12:39:50.091Z,18.40
2022-08-26T12:40:50.023Z,19.00
2022-08-26T12:41:49.996Z,17.00
2022-08-26T12:42:50.032Z,18.60
2022-08-26T12:43:50.028Z,18.00
2022-08-26T12:44:53.150Z,14.90
2022-08-26T12:45:49.969Z,18.40
2022-08-26T12:46:50.065Z,17.20
2022-08-26T12:47:49.984Z,16.80
2022-08-26T12:48:49.904Z,15.90
2022-08-26T12:49:49.929Z,16.70
2022-08-26T12:50:49.876Z,16.60